Time;durP1;ratioP1;P1;durP2;ratioP2;P2;SDS_P1;SDS_P2;PMS_P1;PMS_P2;Temp;Humidity;BMP_temperature;BMP_pressure;BME280_temperature;BME280_humidity;BME280_pressure;Samples;Min_cycle;Max_cycle;Signal;HPM_P1;HPM_P2
2022/04/26 03:37:29;;;;;;;27.30;15.00;;;15.20;57.40;;;;;;5098344;27;21223;-90
2022/04/26 03:39:58;;;;;;;28.77;15.00;;;15.20;57.80;;;;;;5090867;27;20473;-88
2022/04/26 03:42:27;;;;;;;33.57;16.03;;;15.20;57.50;;;;;;5075648;27;20470;-88
2022/04/26 03:44:54;;;;;;;26.93;15.20;;;15.20;57.60;;;;;;5074841;27;20537;-89
2022/04/26 03:47:22;;;;;;;26.50;14.53;;;15.10;57.70;;;;;;5082231;27;20450;-88
2022/04/26 03:49:52;;;;;;;27.20;14.53;;;15.10;57.50;;;;;;5087791;27;20470;-90
2022/04/26 03:52:21;;;;;;;24.73;14.43;;;15.20;57.50;;;;;;5115181;27;20451;-89
2022/04/26 03:54:49;;;;;;;31.33;16.87;;;15.20;57.50;;;;;;5082539;27;20511;-89
2022/04/26 03:57:17;;;;;;;27.00;16.27;;;15.20;57.60;;;;;;5087962;27;20529;-88
2022/04/26 03:59:45;;;;;;;34.00;15.07;;;15.20;57.70;;;;;;5090650;27;20869;-89
2022/04/26 04:02:15;;;;;;;28.67;15.20;;;15.20;57.50;;;;;;5092098;27;20470;-89
2022/04/26 04:04:44;;;;;;;31.23;14.70;;;15.30;57.60;;;;;;5077218;27;20962;-91
2022/04/26 04:07:13;;;;;;;27.97;14.83;;;15.20;57.80;;;;;;5089824;28;20529;-89
2022/04/26 04:09:41;;;;;;;28.77;15.60;;;15.20;57.70;;;;;;5090390;27;20455;-89
2022/04/26 04:12:11;;;;;;;30.53;14.93;;;15.20;57.80;;;;;;5067059;27;20490;-88
2022/04/26 04:14:40;;;;;;;32.67;14.40;;;15.30;57.80;;;;;;5102495;27;20439;-90
2022/04/26 04:17:09;;;;;;;29.63;15.77;;;15.10;58.10;;;;;;5102672;27;20520;-90
2022/04/26 04:19:37;;;;;;;33.50;16.60;;;15.20;58.70;;;;;;5083676;27;20450;-88
2022/04/26 04:22:05;;;;;;;29.50;16.30;;;15.20;57.80;;;;;;5073709;27;20471;-89
2022/04/26 04:24:34;;;;;;;32.60;15.97;;;15.20;57.50;;;;;;5096982;27;20431;-89
2022/04/26 04:27:04;;;;;;;28.70;15.53;;;15.20;57.70;;;;;;5084009;27;20454;-89
2022/04/26 04:29:33;;;;;;;31.33;17.10;;;15.20;57.90;;;;;;5115905;27;20439;-90
2022/04/26 04:32:02;;;;;;;31.17;16.27;;;15.30;57.90;;;;;;5070589;27;20466;-89
2022/04/26 04:34:30;;;;;;;32.50;15.30;;;15.10;57.70;;;;;;5090258;27;20447;-87
2022/04/26 04:36:58;;;;;;;33.47;14.67;;;15.10;57.80;;;;;;5082797;27;20533;-89
2022/04/26 04:39:27;;;;;;;31.97;16.60;;;15.20;57.90;;;;;;5085205;27;20446;-89
2022/04/26 04:41:59;;;;;;;25.73;14.43;;;15.10;58.20;;;;;;5082704;27;20459;-88
2022/04/26 04:44:27;;;;;;;35.13;15.80;;;15.00;57.50;;;;;;5090403;27;20426;-89
2022/04/26 04:47:00;;;;;;;35.47;16.83;;;14.80;58.20;;;;;;5090005;27;20438;-89
2022/04/26 04:49:28;;;;;;;25.83;14.57;;;14.80;58.40;;;;;;5096582;27;20435;-88
2022/04/26 04:51:55;;;;;;;29.93;15.60;;;15.00;58.50;;;;;;5081413;27;21052;-88
2022/04/26 04:54:23;;;;;;;31.83;17.03;;;15.00;58.60;;;;;;5112578;27;20450;-89
2022/04/26 04:56:51;;;;;;;32.63;14.80;;;15.00;58.90;;;;;;5090312;27;20457;-91
2022/04/26 04:59:21;;;;;;;31.93;16.23;;;15.00;58.60;;;;;;5103910;27;20444;-91
2022/04/26 05:01:51;;;;;;;32.33;18.13;;;15.00;58.50;;;;;;5085685;28;20454;-92
2022/04/26 05:04:20;;;;;;;32.90;20.07;;;15.00;58.60;;;;;;5074454;27;20542;-92
2022/04/26 05:06:49;;;;;;;37.67;20.40;;;15.10;58.50;;;;;;5088151;27;20446;-90
2022/04/26 05:09:17;;;;;;;89.97;50.93;;;15.00;58.00;;;;;;5090350;27;20435;-92
2022/04/26 05:11:47;;;;;;;84.43;46.90;;;15.00;58.10;;;;;;5069574;27;21389;-92
2022/04/26 05:14:15;;;;;;;40.30;23.53;;;14.90;58.40;;;;;;5085205;27;20427;-94
2022/04/26 05:16:47;;;;;;;43.37;24.00;;;14.90;58.40;;;;;;5093636;27;20470;-96
2022/04/26 05:19:15;;;;;;;40.60;27.43;;;15.00;58.60;;;;;;5104904;27;20484;-95
2022/04/26 05:21:44;;;;;;;32.10;19.27;;;15.00;58.60;;;;;;5104388;28;20713;-96
2022/04/26 05:26:58;;;;;;;33.57;18.73;;;14.90;58.60;;;;;;5106097;27;20441;-96
2022/04/26 05:29:27;;;;;;;26.97;16.20;;;14.80;58.40;;;;;;5098290;28;20419;-95
2022/04/26 05:31:56;;;;;;;37.00;17.70;;;14.70;58.40;;;;;;5096009;27;20458;-93
2022/04/26 05:34:24;;;;;;;33.73;16.27;;;14.80;58.60;;;;;;5074616;28;20462;-95
2022/04/26 05:36:52;;;;;;;34.17;16.67;;;14.90;58.70;;;;;;5078295;28;20442;-93
2022/04/26 05:39:20;;;;;;;36.60;17.30;;;15.00;58.80;;;;;;5094346;28;20454;-95
2022/04/26 05:41:50;;;;;;;46.63;20.00;;;15.00;58.70;;;;;;5095139;28;20470;-91
2022/04/26 05:44:18;;;;;;;36.47;18.90;;;15.00;58.60;;;;;;5086954;28;20476;-93
2022/04/26 05:46:47;;;;;;;33.13;17.03;;;15.10;58.40;;;;;;5087150;28;20498;-93
2022/04/26 05:49:16;;;;;;;31.90;16.50;;;15.10;58.30;;;;;;5083403;28;20442;-93
2022/04/26 05:51:44;;;;;;;36.70;18.80;;;15.20;58.40;;;;;;5106677;28;21206;-93
2022/04/26 05:54:14;;;;;;;37.23;18.10;;;15.20;58.50;;;;;;5085206;28;20953;-93
2022/04/26 05:56:44;;;;;;;36.40;18.37;;;15.10;58.50;;;;;;5065609;28;20448;-92
2022/04/26 05:59:12;;;;;;;36.40;18.00;;;15.00;59.00;;;;;;5072039;28;20449;-93
2022/04/26 06:01:39;;;;;;;41.27;20.13;;;14.70;58.90;;;;;;5096219;28;20950;-91
2022/04/26 06:04:08;;;;;;;31.40;17.63;;;14.40;59.30;;;;;;5066448;28;20997;-92
2022/04/26 06:06:38;;;;;;;33.23;19.37;;;14.40;59.70;;;;;;5081381;28;20805;-93
2022/04/26 06:09:06;;;;;;;36.30;18.63;;;14.40;59.70;;;;;;5063755;28;20439;-92
2022/04/26 06:11:34;;;;;;;34.53;17.30;;;14.50;59.80;;;;;;5107230;28;20438;-92
2022/04/26 06:14:04;;;;;;;33.13;17.53;;;14.50;59.90;;;;;;5072093;28;20566;-92
2022/04/26 06:16:33;;;;;;;34.30;17.47;;;14.40;60.20;;;;;;5063673;28;20457;-92
2022/04/26 06:19:02;;;;;;;35.80;16.90;;;14.50;60.50;;;;;;5099981;28;20446;-91
2022/04/26 06:21:30;;;;;;;41.40;18.73;;;14.70;60.30;;;;;;5064788;28;20536;-93
2022/04/26 06:24:01;;;;;;;39.63;20.10;;;14.80;59.90;;;;;;5082778;28;20984;-95
2022/04/26 06:26:29;;;;;;;38.20;17.87;;;14.70;60.00;;;;;;5084019;28;20791;-94
2022/04/26 06:28:57;;;;;;;30.17;16.77;;;14.70;60.20;;;;;;5077251;28;20455;-92
2022/04/26 06:31:25;;;;;;;34.47;16.70;;;14.80;60.30;;;;;;5090483;27;20537;-94
2022/04/26 06:33:52;;;;;;;25.43;13.90;;;14.70;59.10;;;;;;5089955;27;20468;-92
2022/04/26 06:36:21;;;;;;;28.10;14.73;;;14.40;59.20;;;;;;5091773;27;20444;-93
2022/04/26 06:38:50;;;;;;;25.70;15.57;;;14.30;60.30;;;;;;5091101;27;20576;-94
2022/04/26 06:41:20;;;;;;;29.43;16.17;;;14.30;60.60;;;;;;5104283;27;20458;-92
2022/04/26 06:43:49;;;;;;;32.50;16.00;;;14.40;60.80;;;;;;5073141;27;20868;-91
2022/04/26 06:46:17;;;;;;;28.60;14.47;;;14.40;60.30;;;;;;5072603;27;20431;-90
2022/04/26 06:48:49;;;;;;;28.10;16.03;;;14.60;60.20;;;;;;5091648;27;20449;-93
2022/04/26 06:51:16;;;;;;;28.10;15.27;;;14.70;60.10;;;;;;5092676;27;20461;-92
2022/04/26 06:53:45;;;;;;;25.20;13.30;;;14.80;60.40;;;;;;5081352;27;20443;-90
2022/04/26 06:56:14;;;;;;;25.77;13.40;;;14.80;59.40;;;;;;5083848;27;20442;-94
2022/04/26 06:58:44;;;;;;;25.47;13.77;;;14.90;59.20;;;;;;5077349;27;20446;-92
2022/04/26 07:01:13;;;;;;;21.97;13.03;;;14.70;58.90;;;;;;5105367;27;21037;-93
2022/04/26 07:03:41;;;;;;;27.33;14.23;;;14.60;59.40;;;;;;5109583;27;20546;-93
2022/04/26 07:06:09;;;;;;;21.43;13.50;;;14.60;59.30;;;;;;5076425;27;20507;-96
2022/04/26 07:08:37;;;;;;;26.00;14.80;;;14.60;59.50;;;;;;5070088;27;20586;-93
2022/04/26 07:11:05;;;;;;;23.83;13.50;;;14.70;59.80;;;;;;5089139;27;20443;-92
2022/04/26 07:13:33;;;;;;;24.93;13.20;;;14.80;59.90;;;;;;5088996;27;20944;-92
2022/04/26 07:16:03;;;;;;;20.07;12.83;;;14.90;59.70;;;;;;5114831;27;20489;-94
2022/04/26 07:18:32;;;;;;;23.27;13.77;;;15.00;59.50;;;;;;5078484;27;20446;-92
2022/04/26 07:21:01;;;;;;;23.83;13.43;;;15.20;59.30;;;;;;5095282;27;20442;-94
2022/04/26 07:23:29;;;;;;;24.47;13.30;;;15.10;59.30;;;;;;5102836;28;20871;-92
2022/04/26 07:25:57;;;;;;;16.23;10.37;;;15.10;58.90;;;;;;5091780;27;20452;-93
2022/04/26 07:28:25;;;;;;;22.20;13.20;;;14.70;58.60;;;;;;5103094;27;20438;-93
2022/04/26 07:30:53;;;;;;;17.27;9.50;;;14.70;59.40;;;;;;5085510;27;20442;-95
2022/04/26 07:36:09;;;;;;;17.77;11.30;;;14.60;60.40;;;;;;5073812;27;20427;-95
2022/04/26 07:38:38;;;;;;;19.03;11.10;;;14.70;59.80;;;;;;5082005;27;20446;-95
2022/04/26 07:41:09;;;;;;;16.83;10.43;;;14.70;60.40;;;;;;5095779;27;20526;-93
2022/04/26 07:43:37;;;;;;;21.57;11.40;;;14.80;60.40;;;;;;5088376;27;20458;-94
2022/04/26 07:46:06;;;;;;;19.17;12.50;;;15.00;59.30;;;;;;5098280;27;20422;-94
2022/04/26 07:48:39;;;;;;;18.37;12.10;;;15.20;58.90;;;;;;5078358;27;20498;-93
2022/04/26 07:51:07;;;;;;;25.77;12.23;;;15.10;58.80;;;;;;5076796;27;20443;-94
2022/04/26 07:53:37;;;;;;;22.80;12.27;;;15.10;58.90;;;;;;5091858;27;20489;-94
2022/04/26 07:56:06;;;;;;;20.07;13.23;;;15.10;59.00;;;;;;5068778;27;20446;-93
2022/04/26 07:58:34;;;;;;;23.67;12.03;;;15.10;59.00;;;;;;5086053;27;20455;-93
2022/04/26 08:01:05;;;;;;;25.87;14.00;;;15.00;59.00;;;;;;5075386;27;20453;-93
2022/04/26 08:03:35;;;;;;;22.60;12.37;;;15.00;59.60;;;;;;5097481;27;20474;-93
2022/04/26 08:06:04;;;;;;;23.00;12.67;;;15.20;60.20;;;;;;5095852;27;20470;-93
2022/04/26 08:08:32;;;;;;;19.93;12.70;;;15.10;59.30;;;;;;5072864;27;20427;-92
2022/04/26 08:11:01;;;;;;;22.83;14.00;;;15.20;59.30;;;;;;5084506;27;20542;-92
2022/04/26 08:13:30;;;;;;;21.77;12.10;;;15.20;59.20;;;;;;5118460;27;20455;-93
2022/04/26 08:15:58;;;;;;;22.93;12.20;;;15.10;60.60;;;;;;5093242;28;20907;-92
2022/04/26 08:18:25;;;;;;;26.33;13.50;;;14.80;60.10;;;;;;5093684;27;20454;-92
2022/04/26 08:20:55;;;;;;;24.00;12.03;;;14.80;60.50;;;;;;5091919;28;20450;-92
2022/04/26 08:23:24;;;;;;;27.97;14.83;;;14.90;60.30;;;;;;5074050;27;20549;-91
2022/04/26 08:28:38;;;;;;;24.70;14.03;;;15.00;61.00;;;;;;5093233;27;20441;-92
2022/04/26 08:31:08;;;;;;;26.37;15.13;;;15.10;59.90;;;;;;5106593;27;20972;-93
2022/04/26 08:33:36;;;;;;;24.07;13.07;;;15.20;59.70;;;;;;5092696;27;20450;-92
2022/04/26 08:36:06;;;;;;;28.90;13.47;;;15.20;59.30;;;;;;5095662;27;20457;-92
2022/04/26 08:38:35;;;;;;;26.30;14.10;;;15.00;59.60;;;;;;5086325;27;20431;-92
2022/04/26 08:41:04;;;;;;;23.33;14.50;;;15.10;60.00;;;;;;5087759;27;20511;-93
2022/04/26 08:43:33;;;;;;;26.17;14.23;;;15.30;60.00;;;;;;5087914;27;20463;-92
2022/04/26 08:46:02;;;;;;;28.63;14.67;;;15.40;59.60;;;;;;5085102;27;20945;-93
2022/04/26 08:51:17;;;;;;;19.87;10.20;;;15.30;59.80;;;;;;5107781;28;20426;-92
2022/04/26 08:53:46;;;;;;;18.70;10.93;;;15.20;59.40;;;;;;5086508;28;20463;-90
2022/04/26 08:56:16;;;;;;;17.10;10.67;;;15.10;59.10;;;;;;5082395;28;20442;-91
2022/04/26 08:58:45;;;;;;;18.40;10.37;;;15.10;59.50;;;;;;5072626;27;21138;-92
2022/04/26 09:01:16;;;;;;;19.43;11.30;;;14.90;60.00;;;;;;5102982;27;20434;-92
2022/04/26 09:04:15;;;;;;;20.10;10.07;;;14.90;59.80;;;;;;5073930;27;20453;-92
2022/04/26 09:07:12;;;;;;;15.30;9.50;;;14.90;60.30;;;;;;5082208;27;20963;-93
2022/04/26 09:09:41;;;;;;;18.20;12.70;;;14.90;60.30;;;;;;5084831;27;20449;-92
2022/04/26 09:12:13;;;;;;;18.30;10.47;;;15.00;60.60;;;;;;5084604;27;20872;-91
2022/04/26 09:14:50;;;;;;;20.77;12.33;;;15.00;59.90;;;;;;5080248;27;20435;-92
2022/04/26 09:17:18;;;;;;;17.83;12.50;;;15.10;59.90;;;;;;5090456;27;20822;-94
2022/04/26 09:19:48;;;;;;;25.30;18.73;;;15.30;59.60;;;;;;5066718;27;20545;-94
2022/04/26 09:22:19;;;;;;;26.60;22.10;;;15.40;59.20;;;;;;5089749;27;20450;-92
2022/04/26 09:24:55;;;;;;;16.20;10.30;;;15.60;58.90;;;;;;5072155;28;20450;-93
2022/04/26 09:27:24;;;;;;;19.80;12.57;;;15.50;58.40;;;;;;5082016;28;20442;-93
2022/04/26 09:29:52;;;;;;;19.47;12.20;;;15.50;58.80;;;;;;5073616;27;20957;-92
2022/04/26 09:32:23;;;;;;;21.07;14.37;;;15.50;59.10;;;;;;5083264;28;20465;-93
2022/04/26 09:34:51;;;;;;;16.60;11.47;;;15.30;59.30;;;;;;5073507;28;20437;-91
2022/04/26 09:37:20;;;;;;;18.53;12.20;;;15.30;59.40;;;;;;5089227;27;20438;-93
2022/04/26 09:40:05;;;;;;;17.43;10.20;;;15.50;58.80;;;;;;5068547;27;20453;-92
2022/04/26 09:42:36;;;;;;;17.30;12.30;;;15.30;58.70;;;;;;5074712;28;20467;-93
2022/04/26 09:45:06;;;;;;;16.50;10.50;;;15.30;59.30;;;;;;5089437;28;20515;-93
2022/04/26 09:47:39;;;;;;;14.27;9.30;;;15.10;58.40;;;;;;5089236;28;20491;-94
2022/04/26 09:50:09;;;;;;;15.70;9.30;;;15.10;58.30;;;;;;5070754;28;20442;-93
2022/04/26 09:52:42;;;;;;;18.60;12.17;;;15.00;58.50;;;;;;5072965;28;20458;-93
2022/04/26 09:55:13;;;;;;;17.00;10.90;;;15.20;58.50;;;;;;5085850;28;20438;-93
2022/04/26 09:57:43;;;;;;;16.87;11.57;;;15.40;59.10;;;;;;5088188;28;20443;-94
2022/04/26 10:00:12;;;;;;;14.50;10.47;;;15.40;58.60;;;;;;5084539;28;20533;-93
2022/04/26 10:02:47;;;;;;;16.67;9.77;;;15.10;58.60;;;;;;5081348;28;20565;-92
2022/04/26 10:05:20;;;;;;;14.90;9.43;;;15.10;58.00;;;;;;5085386;28;20482;-93
2022/04/26 10:07:52;;;;;;;12.80;8.57;;;15.10;58.60;;;;;;5094164;27;20492;-93
2022/04/26 10:10:20;;;;;;;12.00;7.93;;;15.10;56.80;;;;;;5103869;27;20556;-94
2022/04/26 10:15:32;;;;;;;12.30;8.57;;;15.40;57.80;;;;;;5069227;27;21117;-93
2022/04/26 10:18:00;;;;;;;11.70;8.77;;;15.50;58.20;;;;;;5101430;27;20449;-92
2022/04/26 10:20:40;;;;;;;12.03;8.50;;;15.50;57.10;;;;;;5079545;27;20446;-94
2022/04/26 10:23:10;;;;;;;11.97;8.17;;;15.20;56.10;;;;;;5085032;27;20468;-93
2022/04/26 10:25:38;;;;;;;11.10;7.50;;;15.10;57.20;;;;;;5094272;27;20441;-93
2022/04/26 10:28:23;;;;;;;13.17;8.07;;;15.20;57.50;;;;;;5093621;27;20525;-93
2022/04/26 10:30:52;;;;;;;14.50;8.40;;;15.30;58.50;;;;;;5091681;27;20468;-90
2022/04/26 10:33:38;;;;;;;11.90;7.67;;;15.40;57.70;;;;;;5092227;27;20480;-94
2022/04/26 10:36:34;;;;;;;15.63;7.40;;;15.50;57.90;;;;;;5087440;27;20446;-93
2022/04/26 10:39:23;;;;;;;9.63;7.27;;;15.50;57.20;;;;;;5087845;27;20986;-93
2022/04/26 10:41:55;;;;;;;13.20;8.63;;;15.50;57.60;;;;;;5086723;27;20476;-92
2022/04/26 10:44:26;;;;;;;18.33;10.20;;;15.50;57.30;;;;;;5093957;27;21037;-93
2022/04/26 10:47:24;;;;;;;14.87;9.63;;;15.50;57.10;;;;;;5075133;27;20452;-93
2022/04/26 10:49:53;;;;;;;12.30;8.10;;;15.70;57.60;;;;;;5089643;27;20476;-92
2022/04/26 10:52:47;;;;;;;12.40;7.83;;;15.70;57.20;;;;;;5091767;27;20466;-93
2022/04/26 10:55:25;;;;;;;12.93;7.37;;;15.50;57.10;;;;;;5067959;27;20531;-95
2022/04/26 10:57:52;;;;;;;8.03;6.33;;;15.30;55.40;;;;;;5092691;27;20488;-94
2022/04/26 11:00:34;;;;;;;9.03;6.00;;;15.50;56.70;;;;;;5087334;27;20446;-93
2022/04/26 11:03:07;;;;;;;17.20;8.13;;;15.40;55.60;;;;;;5066653;28;20458;-94
2022/04/26 11:05:35;;;;;;;11.70;7.27;;;15.40;57.30;;;;;;5076927;27;20450;-93
2022/04/26 11:08:06;;;;;;;10.47;7.87;;;15.50;57.20;;;;;;5103468;27;20824;-93
2022/04/26 11:13:22;;;;;;;11.60;7.10;;;15.90;57.60;;;;;;5088695;28;20464;-94
2022/04/26 11:16:05;;;;;;;12.53;7.00;;;15.70;56.00;;;;;;5070128;27;20439;-92
2022/04/26 11:18:34;;;;;;;12.87;7.80;;;15.60;57.00;;;;;;5086662;27;20529;-94
2022/04/26 11:21:02;;;;;;;9.10;5.83;;;15.70;57.10;;;;;;5079879;27;20450;-94
2022/04/26 11:29:21;;;;;;;8.57;5.30;;;15.60;57.10;;;;;;5073265;27;20817;-94
2022/04/26 11:31:49;;;;;;;9.40;5.60;;;15.70;55.30;;;;;;5076193;27;20475;-93
2022/04/26 11:34:17;;;;;;;8.60;5.60;;;15.70;56.80;;;;;;5082450;27;20447;-93
2022/04/26 11:36:45;;;;;;;11.63;9.70;;;15.90;57.80;;;;;;5077838;27;20471;-92
2022/04/26 11:39:14;;;;;;;7.37;5.30;;;16.20;57.90;;;;;;5097266;27;20949;-95
2022/04/26 11:41:44;;;;;;;9.90;5.87;;;16.10;56.90;;;;;;5098906;27;20487;-94
2022/04/26 11:44:12;;;;;;;8.83;5.33;;;16.00;57.20;;;;;;5111213;27;20560;-95
2022/04/26 11:46:58;;;;;;;5.30;4.40;;;15.80;56.30;;;;;;5069687;27;21016;-94
2022/04/26 11:49:39;;;;;;;6.57;5.47;;;15.70;56.40;;;;;;5098614;27;20490;-95
2022/04/26 11:52:08;;;;;;;10.87;7.03;;;15.60;57.00;;;;;;5088042;28;20499;-93
2022/04/26 11:54:36;;;;;;;12.90;7.40;;;15.80;58.20;;;;;;5098335;27;21071;-94
2022/04/26 11:57:07;;;;;;;7.97;5.60;;;15.80;57.30;;;;;;5065093;27;21036;-95
2022/04/26 11:59:35;;;;;;;6.50;5.40;;;15.70;57.60;;;;;;5071823;27;20452;-94
2022/04/26 12:02:05;;;;;;;8.60;6.10;;;15.60;57.00;;;;;;5067092;27;20446;-93
2022/04/26 12:04:34;;;;;;;9.10;6.20;;;15.90;57.20;;;;;;5081028;27;20459;-93
2022/04/26 12:07:03;;;;;;;8.30;5.73;;;16.10;57.00;;;;;;5087393;27;20453;-94
2022/04/26 12:09:32;;;;;;;6.33;4.97;;;16.20;57.10;;;;;;5093196;27;20511;-94
2022/04/26 12:12:03;;;;;;;11.50;5.67;;;16.30;56.30;;;;;;5062178;27;20620;-94
2022/04/26 12:14:32;;;;;;;7.43;4.70;;;16.30;55.80;;;;;;5076086;28;20521;-93
2022/04/26 12:17:00;;;;;;;6.03;4.83;;;16.00;54.90;;;;;;5081339;27;20811;-93
2022/04/26 12:19:35;;;;;;;6.73;4.60;;;15.70;54.70;;;;;;5069907;27;20454;-92
2022/04/26 12:22:04;;;;;;;8.40;4.93;;;15.90;55.80;;;;;;5062065;27;20434;-93
2022/04/26 12:24:33;;;;;;;6.40;4.67;;;16.10;56.30;;;;;;5086968;27;20527;-93
2022/04/26 12:27:04;;;;;;;7.63;5.60;;;16.00;55.40;;;;;;5070384;28;20450;-92
2022/04/26 12:29:43;;;;;;;8.70;5.63;;;16.10;55.50;;;;;;5071526;27;20526;-93
2022/04/26 12:32:13;;;;;;;6.43;5.77;;;16.00;55.80;;;;;;5086062;27;20446;-93
2022/04/26 12:34:48;;;;;;;10.40;7.10;;;16.00;55.20;;;;;;5081543;27;20439;-93
2022/04/26 12:37:20;;;;;;;10.87;6.50;;;16.00;56.40;;;;;;5097010;27;20478;-93
2022/04/26 12:39:49;;;;;;;8.47;5.63;;;16.10;56.40;;;;;;5091923;27;20456;-94
2022/04/26 12:42:29;;;;;;;6.63;4.37;;;16.20;55.50;;;;;;5080328;27;20480;-93
2022/04/26 12:45:01;;;;;;;4.93;4.43;;;16.20;55.50;;;;;;5064121;27;21016;-94
2022/04/26 12:50:31;;;;;;;6.57;5.33;;;16.30;54.20;;;;;;5072973;27;20514;-94
2022/04/26 12:53:02;;;;;;;5.37;4.23;;;16.30;55.40;;;;;;5098888;27;20450;-92
2022/04/26 12:55:31;;;;;;;6.07;3.83;;;16.10;54.80;;;;;;5097208;28;20434;-92
2022/04/26 12:58:02;;;;;;;8.53;4.00;;;16.20;55.10;;;;;;5075023;27;20486;-93
2022/04/26 13:00:34;;;;;;;7.20;4.00;;;16.10;55.40;;;;;;5088388;27;21205;-94
2022/04/26 13:03:05;;;;;;;8.97;4.67;;;16.10;54.40;;;;;;5088407;27;20473;-95
2022/04/26 13:05:40;;;;;;;7.50;5.10;;;16.00;54.30;;;;;;5087833;28;20792;-93
2022/04/26 13:08:10;;;;;;;8.17;4.43;;;16.20;55.40;;;;;;5083607;27;20869;-88
2022/04/26 13:10:40;;;;;;;6.10;4.70;;;16.20;58.00;;;;;;5087794;27;20439;-93
2022/04/26 13:13:14;;;;;;;9.00;6.33;;;16.20;56.40;;;;;;5090839;27;20554;-94
2022/04/26 13:16:20;;;;;;;6.10;4.23;;;16.20;56.70;;;;;;5146019;27;20410;-94
2022/04/26 13:51:29;;;;;;;3.00;2.70;;;15.70;58.10;;;;;;4943938;28;20741;-93
2022/04/26 13:53:58;;;;;;;3.00;2.33;;;16.00;56.90;;;;;;4915240;29;20470;-93
2022/04/26 13:56:26;;;;;;;3.20;2.47;;;16.20;55.10;;;;;;4913456;29;20538;-93
2022/04/26 13:58:54;;;;;;;2.73;2.50;;;16.50;55.00;;;;;;4896407;29;20518;-94
2022/04/26 14:01:23;;;;;;;4.17;2.80;;;16.50;53.80;;;;;;4909898;29;20487;-93
2022/04/26 14:03:53;;;;;;;1.93;1.73;;;16.40;54.00;;;;;;4913223;29;20991;-94
2022/04/26 14:06:21;;;;;;;1.87;1.70;;;16.30;52.60;;;;;;4907526;29;20987;-93
2022/04/26 14:08:50;;;;;;;2.20;2.00;;;16.30;54.10;;;;;;4908425;29;20443;-93
2022/04/26 14:11:22;;;;;;;2.13;1.97;;;16.50;53.50;;;;;;4920103;29;20541;-94
2022/04/26 14:22:09;;;;;;;1.73;1.63;;;17.50;50.10;;;;;;4909631;29;20586;-92
2022/04/26 14:24:37;;;;;;;1.50;1.40;;;17.50;49.40;;;;;;4924368;29;20471;-93
2022/04/26 14:27:05;;;;;;;1.50;1.40;;;17.30;48.60;;;;;;4921158;29;21003;-94
2022/04/26 14:29:34;;;;;;;2.00;1.80;;;17.30;51.10;;;;;;4917613;29;20447;-93
2022/04/26 14:32:03;;;;;;;1.37;1.27;;;17.20;49.80;;;;;;4913161;29;20506;-94
2022/04/26 14:34:32;;;;;;;1.70;1.60;;;17.00;50.10;;;;;;4915560;29;20557;-92
2022/04/26 14:37:03;;;;;;;3.63;2.43;;;17.20;49.30;;;;;;4907485;29;20550;-93
2022/04/26 14:39:31;;;;;;;2.27;2.10;;;17.50;49.50;;;;;;4895707;29;20459;-94
2022/04/26 14:41:59;;;;;;;1.63;1.53;;;17.80;49.70;;;;;;4910275;29;20988;-93
2022/04/26 14:44:28;;;;;;;1.87;1.77;;;17.80;48.00;;;;;;4890479;29;20471;-93
2022/04/26 14:46:56;;;;;;;1.87;1.77;;;17.90;48.60;;;;;;4927577;29;20970;-91
2022/04/26 14:49:24;;;;;;;3.40;2.70;;;18.00;48.60;;;;;;4909592;29;20459;-93
2022/04/26 14:51:55;;;;;;;2.03;1.93;;;17.40;49.00;;;;;;4923999;29;20850;-94
2022/04/26 14:54:24;;;;;;;2.30;2.10;;;17.20;48.50;;;;;;4927912;29;20466;-93
2022/04/26 14:56:55;;;;;;;2.10;1.80;;;17.10;50.20;;;;;;4912056;29;20462;-94
2022/04/26 14:59:25;;;;;;;3.07;2.80;;;17.00;51.10;;;;;;4901382;29;20984;-94
2022/04/26 15:01:56;;;;;;;3.40;1.97;;;17.20;51.60;;;;;;4915669;29;20459;-93
2022/04/26 15:04:29;;;;;;;2.23;2.03;;;17.30;49.40;;;;;;4923185;29;20455;-92
2022/04/26 15:06:58;;;;;;;5.70;3.67;;;17.10;50.30;;;;;;4903919;29;20455;-93
2022/04/26 15:09:45;;;;;;;4.20;3.50;;;17.00;51.50;;;;;;4934912;29;20459;-93
2022/04/26 15:17:50;;;;;;;6.40;4.50;;;17.20;51.60;;;;;;4928514;29;20424;-93
2022/04/26 15:20:20;;;;;;;3.20;2.90;;;17.00;52.30;;;;;;4899345;29;20454;-94
2022/04/26 15:22:49;;;;;;;4.23;3.27;;;17.20;52.00;;;;;;4908885;29;20505;-92
2022/04/26 15:25:18;;;;;;;4.37;3.07;;;17.20;50.90;;;;;;4920884;29;20478;-92
2022/04/26 15:27:46;;;;;;;2.93;2.37;;;17.10;51.50;;;;;;4904420;29;20464;-92
2022/04/26 15:30:15;;;;;;;6.50;4.27;;;17.00;52.30;;;;;;4906166;29;21138;-92
2022/04/26 15:32:44;;;;;;;5.60;3.60;;;17.10;53.00;;;;;;4906042;29;20534;-93
2022/04/26 15:35:14;;;;;;;4.27;3.50;;;17.30;52.90;;;;;;4932228;28;20527;-91
2022/04/26 15:37:42;;;;;;;5.00;3.57;;;17.10;52.30;;;;;;4904280;29;20540;-93
2022/04/26 15:40:12;;;;;;;3.23;2.83;;;17.00;53.10;;;;;;4890978;29;20447;-91
2022/04/26 15:42:42;;;;;;;2.83;2.50;;;17.00;50.80;;;;;;4904445;29;20468;-91
2022/04/26 15:45:13;;;;;;;6.03;2.93;;;17.00;50.60;;;;;;4920812;29;20476;-93
2022/04/26 15:47:40;;;;;;;3.80;3.17;;;17.20;52.70;;;;;;4916118;29;20462;-91
2022/04/26 15:50:08;;;;;;;4.17;3.20;;;17.20;52.00;;;;;;4908713;29;20475;-90
2022/04/26 15:52:40;;;;;;;6.50;3.17;;;17.40;53.10;;;;;;4912911;29;20481;-91
2022/04/26 15:55:09;;;;;;;5.27;3.87;;;17.20;52.80;;;;;;4926672;29;20967;-92
2022/04/26 15:57:41;;;;;;;3.70;3.23;;;17.00;53.50;;;;;;4893458;29;20547;-91
2022/04/26 16:00:11;;;;;;;3.93;3.03;;;17.10;53.80;;;;;;4924932;29;21184;-91
2022/04/26 16:02:40;;;;;;;4.23;3.80;;;17.00;54.10;;;;;;4913809;29;20474;-91
2022/04/26 16:05:08;;;;;;;3.70;3.33;;;16.80;54.00;;;;;;4894946;29;20479;-90
2022/04/26 16:07:36;;;;;;;5.70;4.87;;;16.60;54.30;;;;;;4906964;29;20479;-91
2022/04/26 16:21:10;;;;;;;7.80;7.00;;;16.40;54.40;;;;;;4910617;29;20514;-92
2022/04/26 16:23:38;;;;;;;5.50;3.83;;;16.40;54.40;;;;;;4897226;29;20483;-93
2022/04/26 16:26:07;;;;;;;6.10;4.20;;;16.20;54.40;;;;;;4911365;29;20468;-91
2022/04/26 16:28:38;;;;;;;5.23;4.73;;;16.20;54.80;;;;;;4921634;29;20684;-91
2022/04/26 16:31:06;;;;;;;4.97;3.90;;;16.30;54.70;;;;;;4910804;29;20526;-91
2022/04/26 16:33:33;;;;;;;4.83;4.00;;;16.20;54.60;;;;;;4912512;29;20892;-92
2022/04/26 16:36:03;;;;;;;5.03;4.53;;;16.40;54.50;;;;;;4914582;29;20475;-91
2022/04/26 16:38:31;;;;;;;5.57;5.07;;;16.50;53.80;;;;;;4914277;29;20537;-91
2022/04/26 16:41:01;;;;;;;4.47;4.03;;;16.40;54.10;;;;;;4923067;29;20967;-92
2022/04/26 16:43:29;;;;;;;7.40;6.33;;;16.40;54.50;;;;;;4912449;29;20482;-91
2022/04/26 16:46:02;;;;;;;8.10;5.50;;;16.40;55.10;;;;;;4889609;29;20472;-91
2022/04/26 16:48:33;;;;;;;9.10;6.13;;;16.60;54.20;;;;;;4915189;29;20834;-92
2022/04/26 16:51:02;;;;;;;8.60;6.40;;;16.40;53.70;;;;;;4892923;29;20483;-92
2022/04/26 16:53:30;;;;;;;13.27;6.00;;;16.40;54.30;;;;;;4913533;29;20478;-91
2022/04/26 16:55:59;;;;;;;8.63;6.17;;;16.30;54.70;;;;;;4890065;29;20443;-90
2022/04/26 16:58:27;;;;;;;5.97;5.27;;;16.50;54.70;;;;;;4923910;29;20963;-93
2022/04/26 17:00:56;;;;;;;6.47;4.87;;;16.60;54.60;;;;;;4912063;29;20452;-91
2022/04/26 17:03:25;;;;;;;5.10;4.37;;;16.60;53.80;;;;;;4906909;29;20546;-92
2022/04/26 17:05:54;;;;;;;5.90;4.80;;;16.30;53.50;;;;;;4914991;29;20473;-91
2022/04/26 17:08:22;;;;;;;7.07;4.57;;;15.70;54.10;;;;;;4914980;29;20463;-92
2022/04/26 17:10:50;;;;;;;8.37;5.67;;;15.60;55.00;;;;;;4908654;29;20459;-92
2022/04/26 17:13:19;;;;;;;5.80;5.10;;;15.40;55.20;;;;;;4892331;29;21007;-92
2022/04/26 17:15:48;;;;;;;7.30;5.23;;;15.50;56.00;;;;;;4893245;29;20456;-93
2022/04/26 17:18:17;;;;;;;7.50;5.67;;;15.50;56.10;;;;;;4902421;29;20450;-92
2022/04/26 17:20:45;;;;;;;10.73;6.13;;;15.70;56.60;;;;;;4889396;29;20463;-95
2022/04/26 17:23:14;;;;;;;6.73;6.10;;;15.90;55.90;;;;;;4892701;29;20502;-92
2022/04/26 17:25:44;;;;;;;8.67;5.50;;;15.90;55.30;;;;;;4907864;29;20471;-94
2022/04/26 17:28:13;;;;;;;6.20;5.03;;;16.00;55.50;;;;;;4909430;29;20979;-94
2022/04/26 17:30:42;;;;;;;8.27;6.03;;;16.00;55.10;;;;;;4893569;29;20454;-90
2022/04/26 17:33:10;;;;;;;8.77;6.50;;;16.00;54.50;;;;;;4897247;29;20472;-92
2022/04/26 17:35:37;;;;;;;8.57;4.60;;;16.10;55.10;;;;;;4919747;29;20935;-93
2022/04/26 17:38:06;;;;;;;7.97;5.00;;;16.00;55.10;;;;;;4921141;29;20455;-92
2022/04/26 17:40:34;;;;;;;6.40;5.70;;;15.90;55.00;;;;;;4903446;29;20455;-91
2022/04/26 17:43:03;;;;;;;9.80;5.80;;;15.90;55.50;;;;;;4896074;29;20535;-92
2022/04/26 17:45:33;;;;;;;9.97;6.00;;;15.90;55.10;;;;;;4895741;29;20463;-93
2022/04/26 17:48:01;;;;;;;6.70;4.70;;;16.00;54.60;;;;;;4906369;29;20499;-94
2022/04/26 17:50:29;;;;;;;6.70;5.50;;;16.10;54.90;;;;;;4932880;29;20447;-93